Time,TemperatureF,DewpointF,PressureIn,WindDirection,WindDirectionDegrees,WindSpeedMPH,WindSpeedGustMPH,Humidity,HourlyPrecipIn,Conditions,Clouds,dailyrainin,SoftwareType,DateUTC
2013-12-10 00:01:00,11.5,6.2,30.02,SW,225,0.2,2.0,79,0.00,,,0.00,WUHU216HW,2013-12-10 07:01:00,
2013-12-10 00:11:00,11.5,6.2,30.02,SW,225,1.1,1.3,79,0.00,,,0.00,WUHU216HW,2013-12-10 07:11:00,
2013-12-10 00:21:00,11.7,6.4,30.01,SW,225,1.3,1.6,79,0.00,,,0.00,WUHU216HW,2013-12-10 07:21:00,
2013-12-10 00:31:00,11.9,6.6,30.00,SW,225,0.4,1.6,79,0.00,,,0.00,WUHU216HW,2013-12-10 07:31:00,
2013-12-10 00:41:00,12.2,6.9,30.00,SW,225,0.4,1.1,79,0.00,,,0.00,WUHU216HW,2013-12-10 07:41:00,
2013-12-10 00:51:00,12.4,7.1,30.01,SW,225,0.0,0.9,79,0.00,,,0.00,WUHU216HW,2013-12-10 07:51:00,
2013-12-10 01:01:00,12.6,7.3,30.00,SW,225,0.2,1.1,79,0.00,,,0.00,WUHU216HW,2013-12-10 08:01:00,
2013-12-10 01:11:00,12.6,7.3,30.00,SW,225,0.4,1.8,79,0.00,,,0.00,WUHU216HW,2013-12-10 08:11:00,
2013-12-10 01:21:00,12.6,7.3,29.99,SW,225,0.2,0.4,79,0.00,,,0.00,WUHU216HW,2013-12-10 08:21:00,
2013-12-10 01:31:00,12.6,7.3,30.00,SW,225,0.4,0.7,79,0.00,,,0.00,WUHU216HW,2013-12-10 08:31:00,
2013-12-10 01:41:00,12.4,7.1,30.00,SW,225,0.2,0.9,79,0.00,,,0.00,WUHU216HW,2013-12-10 08:41:00,
2013-12-10 01:51:00,12.2,6.9,29.99,SW,225,0.0,0.4,79,0.00,,,0.00,WUHU216HW,2013-12-10 08:51:00,
2013-12-10 02:01:00,12.2,6.9,29.99,SW,225,0.7,0.7,79,0.00,,,0.00,WUHU216HW,2013-12-10 09:01:00,
2013-12-10 02:11:00,12.4,7.1,29.98,SW,225,0.0,1.1,79,0.00,,,0.00,WUHU216HW,2013-12-10 09:11:00,
2013-12-10 02:21:00,12.6,7.3,29.98,SW,225,0.0,0.2,79,0.00,,,0.00,WUHU216HW,2013-12-10 09:21:00,
2013-12-10 02:31:00,12.6,7.3,29.98,SW,225,0.0,0.0,79,0.00,,,0.00,WUHU216HW,2013-12-10 09:31:00,
2013-12-10 02:41:00,12.2,6.9,29.99,SW,225,0.0,1.1,79,0.00,,,0.00,WUHU216HW,2013-12-10 09:41:00,
2013-12-10 02:51:00,12.2,6.9,29.99,SW,225,0.0,0.7,79,0.00,,,0.00,WUHU216HW,2013-12-10 09:51:00,
2013-12-10 03:01:00,12.2,6.9,29.99,SW,225,0.0,0.0,79,0.00,,,0.00,WUHU216HW,2013-12-10 10:01:00,
2013-12-10 03:11:00,12.4,7.1,29.99,SW,225,0.9,0.9,79,0.00,,,0.00,WUHU216HW,2013-12-10 10:11:00,
2013-12-10 03:21:00,12.6,7.3,29.99,SW,225,0.4,0.9,79,0.00,,,0.00,WUHU216HW,2013-12-10 10:21:00,
2013-12-10 03:31:00,12.6,7.3,29.98,SW,225,0.0,0.7,79,0.00,,,0.00,WUHU216HW,2013-12-10 10:31:00,
2013-12-10 03:41:00,12.6,7.3,29.98,SW,225,0.9,0.9,79,0.00,,,0.00,WUHU216HW,2013-12-10 10:41:00,
2013-12-10 03:51:00,12.4,7.4,29.98,SW,225,0.2,0.9,80,0.00,,,0.00,WUHU216HW,2013-12-10 10:51:00,
2013-12-10 04:01:00,12.4,7.4,29.98,SW,225,1.1,1.1,80,0.00,,,0.00,WUHU216HW,2013-12-10 11:01:00,
2013-12-10 04:11:00,12.6,7.6,29.98,SW,225,1.6,2.0,80,0.00,,,0.00,WUHU216HW,2013-12-10 11:11:00,
2013-12-10 04:21:00,12.6,7.6,29.99,SW,225,0.0,0.7,80,0.00,,,0.00,WUHU216HW,2013-12-10 11:21:00,
2013-12-10 04:31:00,12.6,7.8,29.98,SW,225,0.4,1.6,81,0.00,,,0.00,WUHU216HW,2013-12-10 11:31:00,
2013-12-10 04:41:00,12.6,7.8,29.99,SW,225,1.1,1.1,81,0.00,,,0.00,WUHU216HW,2013-12-10 11:41:00,
2013-12-10 04:51:00,12.6,7.8,29.99,SW,225,0.7,0.7,81,0.00,,,0.00,WUHU216HW,2013-12-10 11:51:00,
2013-12-10 05:01:00,12.6,7.8,29.99,SW,225,0.0,2.5,81,0.00,,,0.00,WUHU216HW,2013-12-10 12:01:00,
2013-12-10 05:11:00,12.6,7.8,29.99,SW,225,2.0,2.2,81,0.00,,,0.00,WUHU216HW,2013-12-10 12:11:00,
2013-12-10 05:21:00,12.6,8.1,29.99,SW,225,0.7,2.2,82,0.00,,,0.00,WUHU216HW,2013-12-10 12:21:00,
2013-12-10 05:31:00,13.0,8.2,29.99,SW,225,1.8,1.8,81,0.00,,,0.00,WUHU216HW,2013-12-10 12:31:00,
2013-12-10 05:41:00,13.5,9.5,29.99,SW,225,1.3,1.8,84,0.00,,,0.00,WUHU216HW,2013-12-10 12:41:00,
2013-12-10 05:51:00,14.4,10.5,29.99,SW,225,0.2,2.2,84,0.00,,,0.00,WUHU216HW,2013-12-10 12:51:00,
2013-12-10 06:01:00,14.8,10.5,29.99,SW,225,0.4,0.9,83,0.00,,,0.00,WUHU216HW,2013-12-10 13:01:00,
2013-12-10 06:11:00,14.6,10.1,29.99,SW,225,0.7,0.7,82,0.00,,,0.00,WUHU216HW,2013-12-10 13:11:00,
2013-12-10 06:21:00,14.8,10.5,29.98,SW,225,0.4,1.3,83,0.00,,,0.00,WUHU216HW,2013-12-10 13:21:00,
2013-12-10 06:31:00,14.6,10.1,29.99,SW,225,0.4,1.1,82,0.00,,,0.00,WUHU216HW,2013-12-10 13:31:00,
2013-12-10 06:41:00,14.8,10.3,29.99,SW,225,0.9,1.8,82,0.00,,,0.00,WUHU216HW,2013-12-10 13:41:00,
2013-12-10 06:51:00,14.8,10.3,29.99,SW,225,1.6,1.6,82,0.00,,,0.00,WUHU216HW,2013-12-10 13:51:00,
2013-12-10 07:01:00,14.9,10.5,30.00,SW,225,0.9,1.8,82,0.00,,,0.00,WUHU216HW,2013-12-10 14:01:00,
2013-12-10 07:12:00,14.8,10.3,30.00,SW,225,0.0,0.9,82,0.00,,,0.00,WUHU216HW,2013-12-10 14:12:00,
2013-12-10 07:22:00,14.8,10.3,30.00,SW,225,0.0,1.1,82,0.00,,,0.00,WUHU216HW,2013-12-10 14:22:00,
2013-12-10 07:32:00,15.1,10.6,30.00,SW,225,1.1,1.1,82,0.00,,,0.00,WUHU216HW,2013-12-10 14:32:00,
2013-12-10 07:42:00,14.9,10.5,30.00,SW,225,0.0,0.4,82,0.00,,,0.00,WUHU216HW,2013-12-10 14:42:00,
2013-12-10 07:52:00,15.1,10.4,30.00,SW,225,0.4,0.4,81,0.00,,,0.00,WUHU216HW,2013-12-10 14:52:00,
2013-12-10 08:02:00,14.8,10.0,30.01,SW,225,0.4,1.1,81,0.00,,,0.00,WUHU216HW,2013-12-10 15:02:00,
2013-12-10 08:12:00,15.3,10.8,30.01,SW,225,0.2,0.9,82,0.00,,,0.00,WUHU216HW,2013-12-10 15:12:00,
2013-12-10 08:22:00,16.2,12.2,30.01,SW,225,2.2,2.2,84,0.00,,,0.00,WUHU216HW,2013-12-10 15:22:00,
2013-12-10 08:32:00,17.3,13.1,30.02,SW,225,0.4,2.0,84,0.00,,,0.00,WUHU216HW,2013-12-10 15:32:00,
2013-12-10 08:42:00,18.4,14.2,30.02,SW,225,0.4,1.8,84,0.00,,,0.00,WUHU216HW,2013-12-10 15:42:00,
2013-12-10 08:52:00,18.9,14.5,30.02,SW,225,0.2,0.7,83,0.00,,,0.00,WUHU216HW,2013-12-10 15:52:00,
2013-12-10 09:02:00,18.9,14.2,30.03,SW,225,0.9,1.8,82,0.00,,,0.00,WUHU216HW,2013-12-10 16:02:00,
2013-12-10 09:12:00,19.4,15.0,30.04,SW,225,0.4,0.9,83,0.00,,,0.00,WUHU216HW,2013-12-10 16:12:00,
2013-12-10 09:22:00,19.8,15.1,30.04,SW,225,0.9,1.3,82,0.00,,,0.00,WUHU216HW,2013-12-10 16:22:00,
2013-12-10 09:32:00,20.5,15.8,30.04,SW,225,1.3,2.2,82,0.00,,,0.00,WUHU216HW,2013-12-10 16:32:00,
2013-12-10 09:42:00,21.2,16.6,30.04,SW,225,1.3,2.7,82,0.00,,,0.00,WUHU216HW,2013-12-10 16:42:00,
2013-12-10 09:52:00,22.0,17.0,30.05,SW,225,1.1,2.5,81,0.00,,,0.00,WUHU216HW,2013-12-10 16:52:00,
2013-12-10 10:02:00,22.7,17.5,30.05,SW,225,3.1,3.1,80,0.00,,,0.00,WUHU216HW,2013-12-10 17:02:00,
2013-12-10 10:12:00,23.0,17.6,30.05,SW,225,3.1,3.4,79,0.00,,,0.00,WUHU216HW,2013-12-10 17:12:00,
2013-12-10 10:22:00,23.4,17.9,30.05,SW,225,3.1,3.4,79,0.00,,,0.00,WUHU216HW,2013-12-10 17:22:00,
2013-12-10 10:32:00,23.9,18.4,30.05,SW,225,2.5,3.1,79,0.00,,,0.00,WUHU216HW,2013-12-10 17:32:00,
2013-12-10 10:42:00,24.7,18.8,30.05,SW,225,2.0,2.5,78,0.00,,,0.00,WUHU216HW,2013-12-10 17:42:00,
2013-12-10 10:52:00,24.8,19.0,30.05,SW,225,1.1,3.4,78,0.00,,,0.00,WUHU216HW,2013-12-10 17:52:00,
2013-12-10 11:02:00,25.6,19.4,30.05,SW,225,1.8,2.7,77,0.00,,,0.00,WUHU216HW,2013-12-10 18:02:00,
2013-12-10 11:12:00,25.4,18.8,30.05,SW,225,1.8,4.0,76,0.00,,,0.00,WUHU216HW,2013-12-10 18:12:00,
2013-12-10 11:22:00,25.4,19.2,30.05,SW,225,2.5,6.3,77,0.00,,,0.00,WUHU216HW,2013-12-10 18:22:00,
2013-12-10 11:32:00,25.0,18.8,30.05,SW,225,2.7,4.7,77,0.00,,,0.00,WUHU216HW,2013-12-10 18:32:00,
2013-12-10 11:42:00,25.0,18.8,30.05,SW,225,1.8,4.7,77,0.00,,,0.00,WUHU216HW,2013-12-10 18:42:00,
2013-12-10 11:52:00,25.4,19.2,30.05,SW,225,3.4,3.6,77,0.00,,,0.00,WUHU216HW,2013-12-10 18:52:00,
2013-12-10 12:02:00,25.7,19.5,30.05,SW,225,1.8,4.7,77,0.00,,,0.00,WUHU216HW,2013-12-10 19:02:00,
2013-12-10 12:12:00,26.3,19.7,30.06,SW,225,4.0,4.9,76,0.00,,,0.00,WUHU216HW,2013-12-10 19:12:00,
2013-12-10 12:22:00,25.7,19.2,30.06,SW,225,1.8,5.4,76,0.00,,,0.00,WUHU216HW,2013-12-10 19:22:00,
2013-12-10 12:32:00,25.6,19.0,30.06,SW,225,2.7,5.1,76,0.00,,,0.00,WUHU216HW,2013-12-10 19:32:00,
2013-12-10 12:42:00,25.9,19.4,30.06,SW,225,1.8,3.8,76,0.00,,,0.00,WUHU216HW,2013-12-10 19:42:00,
2013-12-10 12:52:00,26.3,19.7,30.06,SW,225,3.4,4.7,76,0.00,,,0.00,WUHU216HW,2013-12-10 19:52:00,
2013-12-10 13:02:00,27.0,20.3,30.06,SW,225,3.4,3.4,76,0.00,,,0.00,WUHU216HW,2013-12-10 20:02:00,
2013-12-10 13:12:00,27.4,20.2,30.06,SW,225,4.0,4.0,74,0.00,,,0.00,WUHU216HW,2013-12-10 20:12:00,
2013-12-10 13:22:00,27.5,20.6,30.06,SW,225,4.5,4.5,75,0.00,,,0.00,WUHU216HW,2013-12-10 20:22:00,
2013-12-10 13:32:00,27.5,20.0,30.06,SW,225,4.0,4.7,73,0.00,,,0.00,WUHU216HW,2013-12-10 20:32:00,
2013-12-10 13:42:00,27.5,20.0,30.06,SW,225,3.6,5.1,73,0.00,,,0.00,WUHU216HW,2013-12-10 20:42:00,
2013-12-10 13:52:00,27.7,20.2,30.06,SW,225,4.0,5.4,73,0.00,,,0.00,WUHU216HW,2013-12-10 20:52:00,
2013-12-10 14:02:00,27.4,19.5,30.05,SW,225,2.7,7.2,72,0.00,,,0.00,WUHU216HW,2013-12-10 21:02:00,
2013-12-10 14:12:00,27.5,19.7,30.06,SW,225,2.0,4.9,72,0.00,,,0.00,WUHU216HW,2013-12-10 21:12:00,
2013-12-10 14:22:00,27.7,20.2,30.06,SW,225,2.2,4.7,73,0.00,,,0.00,WUHU216HW,2013-12-10 21:22:00,
2013-12-10 14:32:00,27.7,19.9,30.06,SW,225,2.7,4.9,72,0.00,,,0.00,WUHU216HW,2013-12-10 21:32:00,
2013-12-10 14:42:00,27.9,20.1,30.06,SW,225,1.8,4.5,72,0.00,,,0.00,WUHU216HW,2013-12-10 21:42:00,
2013-12-10 14:52:00,27.9,20.1,30.06,SW,225,2.9,3.4,72,0.00,,,0.00,WUHU216HW,2013-12-10 21:52:00,
2013-12-10 15:02:00,28.1,19.9,30.06,SW,225,3.1,4.0,71,0.00,,,0.00,WUHU216HW,2013-12-10 22:02:00,
2013-12-10 15:13:00,28.3,20.1,30.07,SW,225,3.1,3.8,71,0.00,,,0.00,WUHU216HW,2013-12-10 22:13:00,
2013-12-10 15:23:00,28.1,19.9,30.07,SW,225,2.5,4.7,71,0.00,,,0.00,WUHU216HW,2013-12-10 22:23:00,
2013-12-10 15:33:00,28.1,19.9,30.07,SW,225,4.0,4.0,71,0.00,,,0.00,WUHU216HW,2013-12-10 22:33:00,
2013-12-10 15:43:00,27.9,19.4,30.07,SW,225,2.5,4.0,70,0.00,,,0.00,WUHU216HW,2013-12-10 22:43:00,
2013-12-10 15:53:00,27.5,19.4,30.07,SW,225,3.1,4.9,71,0.00,,,0.00,WUHU216HW,2013-12-10 22:53:00,
2013-12-10 16:03:00,27.4,19.2,30.08,SW,225,4.0,4.0,71,0.00,,,0.00,WUHU216HW,2013-12-10 23:03:00,
2013-12-10 16:13:00,27.4,19.2,30.08,SW,225,4.0,4.5,71,0.00,,,0.00,WUHU216HW,2013-12-10 23:13:00,
2013-12-10 16:23:00,27.2,19.0,30.08,SW,225,3.6,3.6,71,0.00,,,0.00,WUHU216HW,2013-12-10 23:23:00,
2013-12-10 16:33:00,27.2,19.0,30.09,SW,225,3.1,3.4,71,0.00,,,0.00,WUHU216HW,2013-12-10 23:33:00,
2013-12-10 16:43:00,27.0,18.8,30.10,SW,225,0.7,1.8,71,0.00,,,0.00,WUHU216HW,2013-12-10 23:43:00,
2013-12-10 16:53:00,26.8,18.6,30.10,SW,225,2.0,3.4,71,0.00,,,0.00,WUHU216HW,2013-12-10 23:53:00,
2013-12-10 17:03:00,26.6,18.5,30.10,SW,225,1.3,4.5,71,0.00,,,0.00,WUHU216HW,2013-12-11 00:03:00,
2013-12-10 17:13:00,26.5,18.6,30.10,SW,225,1.6,2.0,72,0.00,,,0.00,WUHU216HW,2013-12-11 00:13:00,
2013-12-10 17:23:00,26.3,18.5,30.10,SW,225,2.2,3.4,72,0.00,,,0.00,WUHU216HW,2013-12-11 00:23:00,
2013-12-10 17:33:00,26.3,18.5,30.11,SW,225,2.9,2.9,72,0.00,,,0.00,WUHU216HW,2013-12-11 00:33:00,
2013-12-10 17:43:00,26.5,18.6,30.11,SW,225,0.7,2.2,72,0.00,,,0.00,WUHU216HW,2013-12-11 00:43:00,
2013-12-10 17:53:00,26.5,18.6,30.11,SW,225,3.1,3.1,72,0.00,,,0.00,WUHU216HW,2013-12-11 00:53:00,
2013-12-10 18:03:00,26.5,18.6,30.11,SW,225,2.5,3.6,72,0.00,,,0.00,WUHU216HW,2013-12-11 01:03:00,
2013-12-10 18:13:00,26.5,18.6,30.11,SW,225,2.9,4.5,72,0.00,,,0.00,WUHU216HW,2013-12-11 01:13:00,
2013-12-10 18:23:00,26.5,18.6,30.11,SW,225,2.9,4.9,72,0.00,,,0.00,WUHU216HW,2013-12-11 01:23:00,
2013-12-10 18:33:00,26.5,18.6,30.11,SW,225,0.4,3.4,72,0.00,,,0.00,WUHU216HW,2013-12-11 01:33:00,
2013-12-10 18:43:00,26.5,18.6,30.11,SW,225,1.6,3.4,72,0.00,,,0.00,WUHU216HW,2013-12-11 01:43:00,
2013-12-10 18:53:00,26.3,18.5,30.11,SW,225,0.4,3.4,72,0.00,,,0.00,WUHU216HW,2013-12-11 01:53:00,
2013-12-10 19:03:00,26.3,18.5,30.11,SW,225,1.1,3.8,72,0.00,,,0.00,WUHU216HW,2013-12-11 02:03:00,
2013-12-10 19:13:00,26.3,18.5,30.11,SW,225,2.5,2.5,72,0.00,,,0.00,WUHU216HW,2013-12-11 02:13:00,
2013-12-10 19:23:00,26.3,18.5,30.11,SW,225,0.0,3.8,72,0.00,,,0.00,WUHU216HW,2013-12-11 02:23:00,
2013-12-10 19:33:00,26.1,18.3,30.11,SW,225,0.7,1.8,72,0.00,,,0.00,WUHU216HW,2013-12-11 02:33:00,
2013-12-10 19:43:00,26.1,18.3,30.11,SW,225,2.5,2.5,72,0.00,,,0.00,WUHU216HW,2013-12-11 02:43:00,
2013-12-10 19:53:00,26.1,18.3,30.11,SW,225,0.4,3.4,72,0.00,,,0.00,WUHU216HW,2013-12-11 02:53:00,
2013-12-10 20:03:00,26.1,18.3,30.11,SW,225,1.3,3.6,72,0.00,,,0.00,WUHU216HW,2013-12-11 03:03:00,
2013-12-10 20:13:00,26.1,18.3,30.11,SW,225,0.2,0.9,72,0.00,,,0.00,WUHU216HW,2013-12-11 03:13:00,
2013-12-10 20:23:00,26.3,18.5,30.11,SW,225,0.2,1.6,72,0.00,,,0.00,WUHU216HW,2013-12-11 03:23:00,
2013-12-10 20:33:00,26.3,18.5,30.11,SW,225,0.0,0.7,72,0.00,,,0.00,WUHU216HW,2013-12-11 03:33:00,
2013-12-10 20:43:00,26.1,18.3,30.12,SW,225,0.0,0.0,72,0.00,,,0.00,WUHU216HW,2013-12-11 03:43:00,
2013-12-10 20:53:00,26.1,18.3,30.11,SW,225,0.4,0.7,72,0.00,,,0.00,WUHU216HW,2013-12-11 03:53:00,
2013-12-10 21:03:00,26.1,18.3,30.12,SW,225,0.2,1.3,72,0.00,,,0.00,WUHU216HW,2013-12-11 04:03:00,
2013-12-10 21:13:00,26.1,18.5,30.12,SW,225,0.9,1.1,73,0.00,,,0.00,WUHU216HW,2013-12-11 04:13:00,
2013-12-10 21:23:00,26.1,18.5,30.12,SW,225,0.0,1.6,73,0.00,,,0.00,WUHU216HW,2013-12-11 04:23:00,
2013-12-10 21:33:00,26.1,18.5,30.12,SW,225,0.4,0.4,73,0.00,,,0.00,WUHU216HW,2013-12-11 04:33:00,
2013-12-10 21:43:00,25.9,18.4,30.12,SW,225,0.4,0.4,73,0.00,,,0.00,WUHU216HW,2013-12-11 04:43:00,
2013-12-10 21:53:00,25.9,18.4,30.12,SW,225,1.6,1.6,73,0.00,,,0.00,WUHU216HW,2013-12-11 04:53:00,
2013-12-10 22:03:00,25.9,18.4,30.12,SW,225,0.0,0.7,73,0.00,,,0.00,WUHU216HW,2013-12-11 05:03:00,
2013-12-10 22:13:00,26.1,18.5,30.12,SW,225,0.4,1.3,73,0.00,,,0.00,WUHU216HW,2013-12-11 05:13:00,
2013-12-10 22:23:00,26.1,18.5,30.13,SW,225,0.2,1.1,73,0.00,,,0.00,WUHU216HW,2013-12-11 05:23:00,
2013-12-10 22:33:00,26.1,18.5,30.13,SW,225,0.2,1.8,73,0.00,,,0.00,WUHU216HW,2013-12-11 05:33:00,
2013-12-10 22:44:00,26.1,18.5,30.13,SW,225,1.1,1.3,73,0.00,,,0.00,WUHU216HW,2013-12-11 05:44:00,
2013-12-10 22:54:00,26.1,18.5,30.13,SW,225,1.1,1.8,73,0.00,,,0.00,WUHU216HW,2013-12-11 05:54:00,
2013-12-10 23:04:00,25.9,18.4,30.13,SW,225,1.1,1.8,73,0.00,,,0.00,WUHU216HW,2013-12-11 06:04:00,
2013-12-10 23:14:00,25.6,18.1,30.14,SW,225,0.9,1.8,73,0.00,,,0.00,WUHU216HW,2013-12-11 06:14:00,
2013-12-10 23:24:00,25.6,18.1,30.14,SW,225,0.0,0.7,73,0.00,,,0.00,WUHU216HW,2013-12-11 06:24:00,
2013-12-10 23:34:00,25.4,17.9,30.14,SW,225,0.0,0.2,73,0.00,,,0.00,WUHU216HW,2013-12-11 06:34:00,
2013-12-10 23:44:00,25.2,17.7,30.14,SW,225,0.0,0.0,73,0.00,,,0.00,WUHU216HW,2013-12-11 06:44:00,
2013-12-10 23:54:00,24.8,17.4,30.14,SW,225,0.0,0.2,73,0.00,,,0.00,WUHU216HW,2013-12-11 06:54:00,